sensor_id;sensor_type;location;lat;lon;timestamp;P1;durP1;ratioP1;P2;durP2;ratioP2
12110;SDS011;6119;52.372;8.990;2023-05-07T00:02:44;27.93;;;18.57;;
12110;SDS011;6119;52.372;8.990;2023-05-07T00:05:31;24.97;;;17.63;;
12110;SDS011;6119;52.372;8.990;2023-05-07T00:08:18;26.23;;;18.10;;
12110;SDS011;6119;52.372;8.990;2023-05-07T00:11:05;28.60;;;19.53;;
12110;SDS011;6119;52.372;8.990;2023-05-07T00:13:51;24.70;;;18.67;;
12110;SDS011;6119;52.372;8.990;2023-05-07T00:16:37;29.00;;;19.17;;
12110;SDS011;6119;52.372;8.990;2023-05-07T00:19:26;29.33;;;18.90;;
12110;SDS011;6119;52.372;8.990;2023-05-07T00:22:12;32.00;;;21.13;;
12110;SDS011;6119;52.372;8.990;2023-05-07T00:24:59;31.67;;;21.63;;
12110;SDS011;6119;52.372;8.990;2023-05-07T00:27:46;32.17;;;22.10;;
12110;SDS011;6119;52.372;8.990;2023-05-07T00:30:32;35.50;;;22.50;;
12110;SDS011;6119;52.372;8.990;2023-05-07T00:33:19;33.63;;;23.67;;
12110;SDS011;6119;52.372;8.990;2023-05-07T00:36:07;34.03;;;22.97;;
12110;SDS011;6119;52.372;8.990;2023-05-07T00:38:53;35.43;;;25.07;;
12110;SDS011;6119;52.372;8.990;2023-05-07T00:41:40;36.13;;;23.97;;
12110;SDS011;6119;52.372;8.990;2023-05-07T00:44:27;34.97;;;23.23;;
12110;SDS011;6119;52.372;8.990;2023-05-07T00:47:14;36.80;;;25.03;;
12110;SDS011;6119;52.372;8.990;2023-05-07T00:50:01;35.27;;;23.87;;
12110;SDS011;6119;52.372;8.990;2023-05-07T00:52:50;37.97;;;24.43;;
12110;SDS011;6119;52.372;8.990;2023-05-07T00:55:36;41.20;;;23.90;;
12110;SDS011;6119;52.372;8.990;2023-05-07T00:58:24;33.43;;;23.10;;
12110;SDS011;6119;52.372;8.990;2023-05-07T01:01:11;39.30;;;23.93;;
12110;SDS011;6119;52.372;8.990;2023-05-07T01:03:57;35.90;;;22.73;;
12110;SDS011;6119;52.372;8.990;2023-05-07T01:06:44;39.20;;;25.30;;
12110;SDS011;6119;52.372;8.990;2023-05-07T01:09:33;41.17;;;25.80;;
12110;SDS011;6119;52.372;8.990;2023-05-07T01:12:21;37.50;;;23.53;;
12110;SDS011;6119;52.372;8.990;2023-05-07T01:15:08;39.90;;;24.27;;
12110;SDS011;6119;52.372;8.990;2023-05-07T01:17:56;39.07;;;24.50;;
12110;SDS011;6119;52.372;8.990;2023-05-07T01:20:42;40.93;;;25.00;;
12110;SDS011;6119;52.372;8.990;2023-05-07T01:23:30;38.13;;;24.57;;
12110;SDS011;6119;52.372;8.990;2023-05-07T01:26:17;37.17;;;24.27;;
12110;SDS011;6119;52.372;8.990;2023-05-07T01:29:04;37.57;;;24.47;;
12110;SDS011;6119;52.372;8.990;2023-05-07T01:31:50;36.50;;;23.53;;
12110;SDS011;6119;52.372;8.990;2023-05-07T01:34:38;37.70;;;22.80;;
12110;SDS011;6119;52.372;8.990;2023-05-07T01:37:25;33.03;;;22.50;;
12110;SDS011;6119;52.372;8.990;2023-05-07T01:40:13;37.70;;;23.00;;
12110;SDS011;6119;52.372;8.990;2023-05-07T01:43:00;35.97;;;22.27;;
12110;SDS011;6119;52.372;8.990;2023-05-07T01:45:48;38.30;;;23.13;;
12110;SDS011;6119;52.372;8.990;2023-05-07T01:48:35;36.17;;;23.07;;
12110;SDS011;6119;52.372;8.990;2023-05-07T01:51:22;37.87;;;22.80;;
12110;SDS011;6119;52.372;8.990;2023-05-07T01:54:09;35.93;;;22.43;;
12110;SDS011;6119;52.372;8.990;2023-05-07T01:56:57;37.60;;;23.50;;
12110;SDS011;6119;52.372;8.990;2023-05-07T01:59:43;36.80;;;23.23;;
12110;SDS011;6119;52.372;8.990;2023-05-07T02:02:30;35.03;;;23.73;;
12110;SDS011;6119;52.372;8.990;2023-05-07T02:05:17;34.90;;;21.67;;
12110;SDS011;6119;52.372;8.990;2023-05-07T02:08:03;34.80;;;21.70;;
12110;SDS011;6119;52.372;8.990;2023-05-07T02:10:50;37.90;;;22.97;;
12110;SDS011;6119;52.372;8.990;2023-05-07T02:13:39;31.53;;;20.30;;
12110;SDS011;6119;52.372;8.990;2023-05-07T02:16:27;33.33;;;22.07;;
12110;SDS011;6119;52.372;8.990;2023-05-07T02:19:13;33.30;;;21.23;;
12110;SDS011;6119;52.372;8.990;2023-05-07T02:22:01;34.17;;;22.10;;
12110;SDS011;6119;52.372;8.990;2023-05-07T02:24:47;38.50;;;23.20;;
12110;SDS011;6119;52.372;8.990;2023-05-07T02:27:33;33.90;;;22.37;;
12110;SDS011;6119;52.372;8.990;2023-05-07T02:30:21;34.27;;;22.47;;
12110;SDS011;6119;52.372;8.990;2023-05-07T02:33:08;36.87;;;22.23;;
12110;SDS011;6119;52.372;8.990;2023-05-07T02:36:04;36.43;;;22.60;;
12110;SDS011;6119;52.372;8.990;2023-05-07T02:38:52;35.93;;;22.90;;
12110;SDS011;6119;52.372;8.990;2023-05-07T02:41:38;38.93;;;22.97;;
12110;SDS011;6119;52.372;8.990;2023-05-07T02:44:25;39.23;;;23.37;;
12110;SDS011;6119;52.372;8.990;2023-05-07T02:47:14;35.33;;;22.30;;
12110;SDS011;6119;52.372;8.990;2023-05-07T02:50:01;38.47;;;23.07;;
12110;SDS011;6119;52.372;8.990;2023-05-07T02:52:48;36.97;;;22.27;;
12110;SDS011;6119;52.372;8.990;2023-05-07T02:55:35;39.60;;;23.47;;
12110;SDS011;6119;52.372;8.990;2023-05-07T02:58:21;40.80;;;23.40;;
12110;SDS011;6119;52.372;8.990;2023-05-07T03:01:08;42.53;;;22.50;;
12110;SDS011;6119;52.372;8.990;2023-05-07T03:03:56;40.23;;;23.20;;
12110;SDS011;6119;52.372;8.990;2023-05-07T03:06:43;37.33;;;21.50;;
12110;SDS011;6119;52.372;8.990;2023-05-07T03:09:29;36.73;;;22.03;;
12110;SDS011;6119;52.372;8.990;2023-05-07T03:12:16;38.50;;;22.77;;
12110;SDS011;6119;52.372;8.990;2023-05-07T03:15:02;42.10;;;24.27;;
12110;SDS011;6119;52.372;8.990;2023-05-07T03:17:49;39.17;;;22.47;;
12110;SDS011;6119;52.372;8.990;2023-05-07T03:20:38;33.60;;;20.80;;
12110;SDS011;6119;52.372;8.990;2023-05-07T03:23:24;33.17;;;20.93;;
12110;SDS011;6119;52.372;8.990;2023-05-07T03:26:11;35.67;;;20.63;;
12110;SDS011;6119;52.372;8.990;2023-05-07T03:28:57;37.83;;;21.60;;
12110;SDS011;6119;52.372;8.990;2023-05-07T03:31:43;34.17;;;19.83;;
12110;SDS011;6119;52.372;8.990;2023-05-07T03:34:30;30.47;;;19.33;;
12110;SDS011;6119;52.372;8.990;2023-05-07T03:37:18;35.23;;;21.30;;
12110;SDS011;6119;52.372;8.990;2023-05-07T03:40:06;35.73;;;20.73;;
12110;SDS011;6119;52.372;8.990;2023-05-07T03:42:55;32.03;;;19.23;;
12110;SDS011;6119;52.372;8.990;2023-05-07T03:45:42;30.53;;;18.50;;
12110;SDS011;6119;52.372;8.990;2023-05-07T03:48:28;30.57;;;18.60;;
12110;SDS011;6119;52.372;8.990;2023-05-07T03:51:14;32.33;;;18.00;;
12110;SDS011;6119;52.372;8.990;2023-05-07T03:54:02;26.17;;;16.67;;
12110;SDS011;6119;52.372;8.990;2023-05-07T03:56:49;29.40;;;16.97;;
12110;SDS011;6119;52.372;8.990;2023-05-07T03:59:35;29.10;;;17.53;;
12110;SDS011;6119;52.372;8.990;2023-05-07T04:02:22;27.03;;;16.23;;
12110;SDS011;6119;52.372;8.990;2023-05-07T04:05:09;24.07;;;15.90;;
12110;SDS011;6119;52.372;8.990;2023-05-07T04:07:55;28.13;;;16.47;;
12110;SDS011;6119;52.372;8.990;2023-05-07T04:10:44;25.60;;;16.70;;
12110;SDS011;6119;52.372;8.990;2023-05-07T04:13:31;24.13;;;15.83;;
12110;SDS011;6119;52.372;8.990;2023-05-07T04:16:17;23.37;;;15.83;;
12110;SDS011;6119;52.372;8.990;2023-05-07T04:19:05;19.93;;;14.47;;
12110;SDS011;6119;52.372;8.990;2023-05-07T04:21:51;24.33;;;14.50;;
12110;SDS011;6119;52.372;8.990;2023-05-07T04:24:37;21.23;;;15.07;;
12110;SDS011;6119;52.372;8.990;2023-05-07T04:27:25;20.20;;;14.67;;
12110;SDS011;6119;52.372;8.990;2023-05-07T04:30:13;22.97;;;14.83;;
12110;SDS011;6119;52.372;8.990;2023-05-07T04:32:59;25.83;;;14.80;;
12110;SDS011;6119;52.372;8.990;2023-05-07T04:35:47;21.30;;;14.57;;
12110;SDS011;6119;52.372;8.990;2023-05-07T04:38:33;22.07;;;16.33;;
12110;SDS011;6119;52.372;8.990;2023-05-07T04:41:19;24.47;;;15.57;;
12110;SDS011;6119;52.372;8.990;2023-05-07T04:44:08;25.03;;;16.47;;
12110;SDS011;6119;52.372;8.990;2023-05-07T04:46:55;24.17;;;16.07;;
12110;SDS011;6119;52.372;8.990;2023-05-07T04:49:41;26.43;;;17.53;;
12110;SDS011;6119;52.372;8.990;2023-05-07T04:52:28;23.97;;;16.80;;
12110;SDS011;6119;52.372;8.990;2023-05-07T04:55:14;24.50;;;16.13;;
12110;SDS011;6119;52.372;8.990;2023-05-07T04:58:01;26.03;;;18.13;;
12110;SDS011;6119;52.372;8.990;2023-05-07T05:00:49;26.17;;;16.87;;
12110;SDS011;6119;52.372;8.990;2023-05-07T05:03:35;23.63;;;16.73;;
12110;SDS011;6119;52.372;8.990;2023-05-07T05:06:22;26.47;;;17.10;;
12110;SDS011;6119;52.372;8.990;2023-05-07T05:09:09;25.10;;;17.40;;
12110;SDS011;6119;52.372;8.990;2023-05-07T05:11:55;21.90;;;15.50;;
12110;SDS011;6119;52.372;8.990;2023-05-07T05:14:42;23.53;;;16.80;;
12110;SDS011;6119;52.372;8.990;2023-05-07T05:17:30;24.93;;;16.60;;
12110;SDS011;6119;52.372;8.990;2023-05-07T05:20:18;23.43;;;16.93;;
12110;SDS011;6119;52.372;8.990;2023-05-07T05:23:04;27.40;;;17.37;;
12110;SDS011;6119;52.372;8.990;2023-05-07T05:25:54;23.90;;;16.60;;
12110;SDS011;6119;52.372;8.990;2023-05-07T05:28:41;27.03;;;17.13;;
12110;SDS011;6119;52.372;8.990;2023-05-07T05:31:27;23.07;;;16.90;;
12110;SDS011;6119;52.372;8.990;2023-05-07T05:34:15;22.20;;;16.27;;
12110;SDS011;6119;52.372;8.990;2023-05-07T05:37:04;25.13;;;16.80;;
12110;SDS011;6119;52.372;8.990;2023-05-07T05:39:51;25.23;;;16.67;;
12110;SDS011;6119;52.372;8.990;2023-05-07T05:42:39;24.37;;;17.40;;
12110;SDS011;6119;52.372;8.990;2023-05-07T05:45:26;22.20;;;15.83;;
12110;SDS011;6119;52.372;8.990;2023-05-07T05:48:13;21.87;;;15.60;;
12110;SDS011;6119;52.372;8.990;2023-05-07T05:51:01;24.60;;;15.97;;
12110;SDS011;6119;52.372;8.990;2023-05-07T05:53:48;22.33;;;17.43;;
12110;SDS011;6119;52.372;8.990;2023-05-07T05:56:34;22.57;;;14.87;;
12110;SDS011;6119;52.372;8.990;2023-05-07T05:59:22;21.30;;;15.00;;
12110;SDS011;6119;52.372;8.990;2023-05-07T06:02:09;21.47;;;16.07;;
12110;SDS011;6119;52.372;8.990;2023-05-07T06:04:56;20.90;;;15.63;;
12110;SDS011;6119;52.372;8.990;2023-05-07T06:07:44;21.40;;;15.07;;
12110;SDS011;6119;52.372;8.990;2023-05-07T06:10:31;25.30;;;15.40;;
12110;SDS011;6119;52.372;8.990;2023-05-07T06:13:17;23.13;;;15.70;;
12110;SDS011;6119;52.372;8.990;2023-05-07T06:16:05;24.13;;;14.97;;
12110;SDS011;6119;52.372;8.990;2023-05-07T06:18:52;21.70;;;15.03;;
12110;SDS011;6119;52.372;8.990;2023-05-07T06:21:38;19.27;;;14.50;;
12110;SDS011;6119;52.372;8.990;2023-05-07T06:24:27;22.67;;;14.87;;
12110;SDS011;6119;52.372;8.990;2023-05-07T06:27:14;22.40;;;14.57;;
12110;SDS011;6119;52.372;8.990;2023-05-07T06:30:00;22.77;;;15.67;;
12110;SDS011;6119;52.372;8.990;2023-05-07T06:32:46;19.07;;;15.00;;
12110;SDS011;6119;52.372;8.990;2023-05-07T06:35:33;19.97;;;14.50;;
12110;SDS011;6119;52.372;8.990;2023-05-07T06:38:19;24.27;;;15.03;;
12110;SDS011;6119;52.372;8.990;2023-05-07T06:41:07;19.57;;;13.77;;
12110;SDS011;6119;52.372;8.990;2023-05-07T06:43:54;20.67;;;14.63;;
12110;SDS011;6119;52.372;8.990;2023-05-07T06:46:40;20.80;;;13.83;;
12110;SDS011;6119;52.372;8.990;2023-05-07T06:49:27;17.73;;;13.63;;
12110;SDS011;6119;52.372;8.990;2023-05-07T06:52:14;21.67;;;14.27;;
12110;SDS011;6119;52.372;8.990;2023-05-07T06:55:00;20.03;;;14.13;;
12110;SDS011;6119;52.372;8.990;2023-05-07T06:57:48;21.47;;;13.03;;
12110;SDS011;6119;52.372;8.990;2023-05-07T07:00:35;17.97;;;12.93;;
12110;SDS011;6119;52.372;8.990;2023-05-07T07:03:21;18.03;;;12.97;;
12110;SDS011;6119;52.372;8.990;2023-05-07T07:06:08;16.57;;;11.60;;
12110;SDS011;6119;52.372;8.990;2023-05-07T07:08:54;16.97;;;12.10;;
12110;SDS011;6119;52.372;8.990;2023-05-07T07:11:40;15.80;;;11.43;;
12110;SDS011;6119;52.372;8.990;2023-05-07T07:14:28;18.53;;;11.70;;
12110;SDS011;6119;52.372;8.990;2023-05-07T07:17:15;15.30;;;11.23;;
12110;SDS011;6119;52.372;8.990;2023-05-07T07:20:02;14.17;;;11.27;;
12110;SDS011;6119;52.372;8.990;2023-05-07T07:22:48;16.30;;;11.63;;
12110;SDS011;6119;52.372;8.990;2023-05-07T07:25:35;13.40;;;10.17;;
12110;SDS011;6119;52.372;8.990;2023-05-07T07:28:21;15.20;;;10.87;;
12110;SDS011;6119;52.372;8.990;2023-05-07T07:31:09;15.03;;;11.40;;
12110;SDS011;6119;52.372;8.990;2023-05-07T07:33:56;14.07;;;11.37;;
12110;SDS011;6119;52.372;8.990;2023-05-07T07:36:43;14.07;;;10.30;;
12110;SDS011;6119;52.372;8.990;2023-05-07T07:39:30;12.80;;;9.40;;
12110;SDS011;6119;52.372;8.990;2023-05-07T07:42:17;13.73;;;10.33;;
12110;SDS011;6119;52.372;8.990;2023-05-07T07:45:04;14.40;;;9.43;;
12110;SDS011;6119;52.372;8.990;2023-05-07T07:47:53;13.30;;;9.10;;
12110;SDS011;6119;52.372;8.990;2023-05-07T07:50:39;11.70;;;9.07;;
12110;SDS011;6119;52.372;8.990;2023-05-07T07:53:30;13.20;;;9.57;;
12110;SDS011;6119;52.372;8.990;2023-05-07T07:56:16;11.50;;;8.53;;
12110;SDS011;6119;52.372;8.990;2023-05-07T07:59:03;15.27;;;10.47;;
12110;SDS011;6119;52.372;8.990;2023-05-07T08:01:49;10.63;;;8.37;;
12110;SDS011;6119;52.372;8.990;2023-05-07T08:04:40;10.20;;;8.07;;
12110;SDS011;6119;52.372;8.990;2023-05-07T08:07:28;10.73;;;8.27;;
12110;SDS011;6119;52.372;8.990;2023-05-07T08:10:15;10.63;;;7.50;;
12110;SDS011;6119;52.372;8.990;2023-05-07T08:13:06;9.97;;;7.67;;
12110;SDS011;6119;52.372;8.990;2023-05-07T08:15:52;10.87;;;7.70;;
12110;SDS011;6119;52.372;8.990;2023-05-07T08:18:39;9.33;;;7.23;;
12110;SDS011;6119;52.372;8.990;2023-05-07T08:21:27;9.77;;;7.60;;
12110;SDS011;6119;52.372;8.990;2023-05-07T08:24:15;10.73;;;7.07;;
12110;SDS011;6119;52.372;8.990;2023-05-07T08:27:02;10.17;;;7.57;;
12110;SDS011;6119;52.372;8.990;2023-05-07T08:29:49;9.47;;;7.47;;
12110;SDS011;6119;52.372;8.990;2023-05-07T08:32:35;9.80;;;7.13;;
12110;SDS011;6119;52.372;8.990;2023-05-07T08:35:22;10.47;;;7.80;;
12110;SDS011;6119;52.372;8.990;2023-05-07T08:38:11;8.80;;;6.60;;
12110;SDS011;6119;52.372;8.990;2023-05-07T08:40:58;8.63;;;7.33;;
12110;SDS011;6119;52.372;8.990;2023-05-07T08:43:45;9.03;;;7.10;;
12110;SDS011;6119;52.372;8.990;2023-05-07T08:46:33;8.83;;;6.73;;
12110;SDS011;6119;52.372;8.990;2023-05-07T08:49:20;9.47;;;6.20;;
12110;SDS011;6119;52.372;8.990;2023-05-07T08:52:06;7.87;;;6.43;;
12110;SDS011;6119;52.372;8.990;2023-05-07T08:54:55;7.13;;;6.43;;
12110;SDS011;6119;52.372;8.990;2023-05-07T08:57:42;10.77;;;6.80;;
12110;SDS011;6119;52.372;8.990;2023-05-07T09:00:29;10.50;;;6.57;;
12110;SDS011;6119;52.372;8.990;2023-05-07T09:03:15;8.23;;;6.33;;
12110;SDS011;6119;52.372;8.990;2023-05-07T09:06:02;8.97;;;6.20;;
12110;SDS011;6119;52.372;8.990;2023-05-07T09:08:50;9.03;;;6.33;;
12110;SDS011;6119;52.372;8.990;2023-05-07T09:11:38;7.27;;;6.03;;
12110;SDS011;6119;52.372;8.990;2023-05-07T09:14:25;8.37;;;6.77;;
12110;SDS011;6119;52.372;8.990;2023-05-07T09:17:11;8.50;;;6.80;;
12110;SDS011;6119;52.372;8.990;2023-05-07T09:20:01;7.60;;;5.70;;
12110;SDS011;6119;52.372;8.990;2023-05-07T09:22:51;7.43;;;5.93;;
12110;SDS011;6119;52.372;8.990;2023-05-07T09:25:37;7.50;;;6.03;;
12110;SDS011;6119;52.372;8.990;2023-05-07T09:28:26;8.93;;;6.97;;
12110;SDS011;6119;52.372;8.990;2023-05-07T09:31:12;9.10;;;6.13;;
12110;SDS011;6119;52.372;8.990;2023-05-07T09:33:59;7.67;;;6.70;;
12110;SDS011;6119;52.372;8.990;2023-05-07T09:36:46;8.63;;;6.40;;
12110;SDS011;6119;52.372;8.990;2023-05-07T09:39:39;7.23;;;6.23;;
12110;SDS011;6119;52.372;8.990;2023-05-07T09:42:26;8.27;;;6.53;;
12110;SDS011;6119;52.372;8.990;2023-05-07T09:45:14;7.27;;;5.87;;
12110;SDS011;6119;52.372;8.990;2023-05-07T09:48:01;8.87;;;6.63;;
12110;SDS011;6119;52.372;8.990;2023-05-07T09:50:51;8.37;;;7.20;;
12110;SDS011;6119;52.372;8.990;2023-05-07T09:53:41;8.50;;;7.40;;
12110;SDS011;6119;52.372;8.990;2023-05-07T09:56:30;11.30;;;7.87;;
12110;SDS011;6119;52.372;8.990;2023-05-07T09:59:17;10.33;;;8.40;;
12110;SDS011;6119;52.372;8.990;2023-05-07T10:02:07;9.90;;;7.40;;
12110;SDS011;6119;52.372;8.990;2023-05-07T10:04:56;9.80;;;8.40;;
12110;SDS011;6119;52.372;8.990;2023-05-07T10:07:45;9.63;;;8.10;;
12110;SDS011;6119;52.372;8.990;2023-05-07T10:10:32;10.10;;;8.53;;
12110;SDS011;6119;52.372;8.990;2023-05-07T10:13:19;11.63;;;8.33;;
12110;SDS011;6119;52.372;8.990;2023-05-07T10:16:07;10.50;;;8.17;;
12110;SDS011;6119;52.372;8.990;2023-05-07T10:18:55;11.03;;;8.97;;
12110;SDS011;6119;52.372;8.990;2023-05-07T10:21:44;11.77;;;8.83;;
12110;SDS011;6119;52.372;8.990;2023-05-07T10:24:36;9.70;;;8.20;;
12110;SDS011;6119;52.372;8.990;2023-05-07T10:27:24;11.47;;;8.00;;
12110;SDS011;6119;52.372;8.990;2023-05-07T10:30:15;10.07;;;7.87;;
12110;SDS011;6119;52.372;8.990;2023-05-07T10:33:11;11.13;;;9.37;;
12110;SDS011;6119;52.372;8.990;2023-05-07T10:36:05;10.30;;;9.10;;
12110;SDS011;6119;52.372;8.990;2023-05-07T10:38:53;11.10;;;9.53;;
12110;SDS011;6119;52.372;8.990;2023-05-07T10:41:41;13.50;;;9.67;;
12110;SDS011;6119;52.372;8.990;2023-05-07T10:44:29;10.73;;;9.20;;
12110;SDS011;6119;52.372;8.990;2023-05-07T10:47:17;9.93;;;8.57;;
12110;SDS011;6119;52.372;8.990;2023-05-07T10:50:20;11.43;;;8.67;;
12110;SDS011;6119;52.372;8.990;2023-05-07T10:53:23;9.60;;;7.53;;
12110;SDS011;6119;52.372;8.990;2023-05-07T10:56:24;9.10;;;7.70;;
12110;SDS011;6119;52.372;8.990;2023-05-07T10:59:33;10.97;;;7.87;;
12110;SDS011;6119;52.372;8.990;2023-05-07T11:08:59;9.93;;;8.50;;
12110;SDS011;6119;52.372;8.990;2023-05-07T11:11:46;9.40;;;7.90;;
12110;SDS011;6119;52.372;8.990;2023-05-07T11:14:43;9.43;;;8.43;;
12110;SDS011;6119;52.372;8.990;2023-05-07T11:17:31;9.93;;;7.80;;
12110;SDS011;6119;52.372;8.990;2023-05-07T11:20:22;8.70;;;7.53;;
12110;SDS011;6119;52.372;8.990;2023-05-07T11:23:55;9.13;;;7.20;;
12110;SDS011;6119;52.372;8.990;2023-05-07T11:26:47;10.67;;;7.53;;
12110;SDS011;6119;52.372;8.990;2023-05-07T11:29:36;8.47;;;7.57;;
12110;SDS011;6119;52.372;8.990;2023-05-07T11:32:26;11.73;;;7.83;;
12110;SDS011;6119;52.372;8.990;2023-05-07T11:35:15;9.00;;;7.83;;
12110;SDS011;6119;52.372;8.990;2023-05-07T11:38:03;10.23;;;8.20;;
12110;SDS011;6119;52.372;8.990;2023-05-07T11:40:53;9.50;;;8.13;;
12110;SDS011;6119;52.372;8.990;2023-05-07T11:43:53;13.00;;;9.97;;
12110;SDS011;6119;52.372;8.990;2023-05-07T11:46:42;10.97;;;8.70;;
12110;SDS011;6119;52.372;8.990;2023-05-07T11:49:34;12.70;;;8.70;;
12110;SDS011;6119;52.372;8.990;2023-05-07T11:52:22;10.20;;;8.10;;
12110;SDS011;6119;52.372;8.990;2023-05-07T11:55:11;10.53;;;8.67;;
12110;SDS011;6119;52.372;8.990;2023-05-07T11:58:00;10.23;;;8.67;;
12110;SDS011;6119;52.372;8.990;2023-05-07T12:00:48;10.37;;;9.30;;
12110;SDS011;6119;52.372;8.990;2023-05-07T12:03:36;12.67;;;8.77;;
12110;SDS011;6119;52.372;8.990;2023-05-07T12:06:24;12.53;;;9.40;;
12110;SDS011;6119;52.372;8.990;2023-05-07T12:09:12;10.60;;;9.50;;
12110;SDS011;6119;52.372;8.990;2023-05-07T12:12:03;10.67;;;9.00;;
12110;SDS011;6119;52.372;8.990;2023-05-07T12:14:52;11.37;;;8.93;;
12110;SDS011;6119;52.372;8.990;2023-05-07T12:17:40;11.83;;;9.43;;
12110;SDS011;6119;52.372;8.990;2023-05-07T12:20:28;11.50;;;10.30;;
12110;SDS011;6119;52.372;8.990;2023-05-07T12:23:16;11.43;;;10.00;;
12110;SDS011;6119;52.372;8.990;2023-05-07T12:26:04;9.40;;;8.30;;
12110;SDS011;6119;52.372;8.990;2023-05-07T12:28:52;12.10;;;8.93;;
12110;SDS011;6119;52.372;8.990;2023-05-07T12:31:41;10.40;;;9.13;;
12110;SDS011;6119;52.372;8.990;2023-05-07T12:34:29;10.40;;;9.03;;
12110;SDS011;6119;52.372;8.990;2023-05-07T12:37:22;10.97;;;9.30;;
12110;SDS011;6119;52.372;8.990;2023-05-07T12:40:14;12.77;;;9.40;;
12110;SDS011;6119;52.372;8.990;2023-05-07T12:43:02;11.90;;;8.73;;
12110;SDS011;6119;52.372;8.990;2023-05-07T12:45:51;9.23;;;8.33;;
12110;SDS011;6119;52.372;8.990;2023-05-07T12:48:44;12.23;;;8.93;;
12110;SDS011;6119;52.372;8.990;2023-05-07T12:51:32;10.23;;;9.20;;
12110;SDS011;6119;52.372;8.990;2023-05-07T12:54:28;9.90;;;8.83;;
12110;SDS011;6119;52.372;8.990;2023-05-07T12:57:18;8.83;;;7.93;;
12110;SDS011;6119;52.372;8.990;2023-05-07T13:00:07;10.10;;;8.93;;
12110;SDS011;6119;52.372;8.990;2023-05-07T13:02:55;8.97;;;8.07;;
12110;SDS011;6119;52.372;8.990;2023-05-07T13:05:46;10.07;;;9.00;;
12110;SDS011;6119;52.372;8.990;2023-05-07T13:08:34;10.93;;;8.60;;
12110;SDS011;6119;52.372;8.990;2023-05-07T13:11:26;12.33;;;8.00;;
12110;SDS011;6119;52.372;8.990;2023-05-07T13:14:13;8.67;;;7.77;;
12110;SDS011;6119;52.372;8.990;2023-05-07T13:17:01;8.97;;;8.07;;
12110;SDS011;6119;52.372;8.990;2023-05-07T13:19:48;10.13;;;8.70;;
12110;SDS011;6119;52.372;8.990;2023-05-07T13:22:37;10.87;;;8.80;;
12110;SDS011;6119;52.372;8.990;2023-05-07T13:25:25;9.07;;;8.13;;
12110;SDS011;6119;52.372;8.990;2023-05-07T13:28:13;9.83;;;8.63;;
12110;SDS011;6119;52.372;8.990;2023-05-07T13:31:01;8.83;;;7.93;;
12110;SDS011;6119;52.372;8.990;2023-05-07T13:33:49;9.07;;;8.17;;
12110;SDS011;6119;52.372;8.990;2023-05-07T13:36:38;8.30;;;7.50;;
12110;SDS011;6119;52.372;8.990;2023-05-07T13:39:28;9.13;;;8.20;;
12110;SDS011;6119;52.372;8.990;2023-05-07T13:42:16;10.07;;;7.67;;
12110;SDS011;6119;52.372;8.990;2023-05-07T13:45:04;8.77;;;7.87;;
12110;SDS011;6119;52.372;8.990;2023-05-07T13:47:52;9.73;;;8.00;;
12110;SDS011;6119;52.372;8.990;2023-05-07T13:50:40;7.23;;;6.53;;
12110;SDS011;6119;52.372;8.990;2023-05-07T13:53:27;8.33;;;7.40;;
12110;SDS011;6119;52.372;8.990;2023-05-07T13:56:16;8.30;;;7.50;;
12110;SDS011;6119;52.372;8.990;2023-05-07T13:59:05;9.00;;;7.60;;
12110;SDS011;6119;52.372;8.990;2023-05-07T14:01:55;7.50;;;6.63;;
12110;SDS011;6119;52.372;8.990;2023-05-07T14:04:43;7.57;;;6.77;;
12110;SDS011;6119;52.372;8.990;2023-05-07T14:07:30;7.30;;;6.57;;
12110;SDS011;6119;52.372;8.990;2023-05-07T14:10:18;7.83;;;7.03;;
12110;SDS011;6119;52.372;8.990;2023-05-07T14:13:07;7.87;;;6.97;;
12110;SDS011;6119;52.372;8.990;2023-05-07T14:15:55;7.07;;;6.47;;
12110;SDS011;6119;52.372;8.990;2023-05-07T14:18:43;7.40;;;6.73;;
12110;SDS011;6119;52.372;8.990;2023-05-07T14:21:30;7.17;;;6.47;;
12110;SDS011;6119;52.372;8.990;2023-05-07T14:24:18;8.27;;;7.00;;
12110;SDS011;6119;52.372;8.990;2023-05-07T14:27:21;7.23;;;6.27;;
12110;SDS011;6119;52.372;8.990;2023-05-07T14:30:11;7.07;;;6.47;;
12110;SDS011;6119;52.372;8.990;2023-05-07T14:32:59;7.03;;;6.33;;
12110;SDS011;6119;52.372;8.990;2023-05-07T14:35:46;7.60;;;6.40;;
12110;SDS011;6119;52.372;8.990;2023-05-07T14:38:35;8.37;;;7.50;;
12110;SDS011;6119;52.372;8.990;2023-05-07T14:41:23;8.63;;;7.77;;
12110;SDS011;6119;52.372;8.990;2023-05-07T14:44:11;8.93;;;8.03;;
12110;SDS011;6119;52.372;8.990;2023-05-07T14:47:00;9.97;;;8.97;;
12110;SDS011;6119;52.372;8.990;2023-05-07T14:49:48;9.10;;;8.10;;
12110;SDS011;6119;52.372;8.990;2023-05-07T14:52:35;10.97;;;9.43;;
12110;SDS011;6119;52.372;8.990;2023-05-07T14:55:23;9.00;;;8.10;;
12110;SDS011;6119;52.372;8.990;2023-05-07T14:58:10;9.87;;;8.83;;
12110;SDS011;6119;52.372;8.990;2023-05-07T15:00:58;11.13;;;9.63;;
12110;SDS011;6119;52.372;8.990;2023-05-07T15:03:46;9.23;;;8.33;;
12110;SDS011;6119;52.372;8.990;2023-05-07T15:06:33;10.73;;;9.47;;
12110;SDS011;6119;52.372;8.990;2023-05-07T15:09:19;9.33;;;8.40;;
12110;SDS011;6119;52.372;8.990;2023-05-07T15:12:06;11.07;;;10.00;;
12110;SDS011;6119;52.372;8.990;2023-05-07T15:14:52;10.03;;;9.03;;
12110;SDS011;6119;52.372;8.990;2023-05-07T15:17:39;9.57;;;8.60;;
12110;SDS011;6119;52.372;8.990;2023-05-07T15:20:27;9.53;;;8.53;;
12110;SDS011;6119;52.372;8.990;2023-05-07T15:23:14;11.33;;;8.53;;
12110;SDS011;6119;52.372;8.990;2023-05-07T15:26:00;10.70;;;9.70;;
12110;SDS011;6119;52.372;8.990;2023-05-07T15:28:48;10.80;;;9.63;;
12110;SDS011;6119;52.372;8.990;2023-05-07T15:31:36;9.37;;;8.47;;
12110;SDS011;6119;52.372;8.990;2023-05-07T15:34:24;9.87;;;8.87;;
12110;SDS011;6119;52.372;8.990;2023-05-07T15:37:12;10.30;;;8.63;;
12110;SDS011;6119;52.372;8.990;2023-05-07T15:39:58;10.10;;;9.20;;
12110;SDS011;6119;52.372;8.990;2023-05-07T15:42:47;10.03;;;9.00;;
12110;SDS011;6119;52.372;8.990;2023-05-07T15:45:36;9.03;;;8.17;;
12110;SDS011;6119;52.372;8.990;2023-05-07T15:48:26;10.17;;;8.67;;
12110;SDS011;6119;52.372;8.990;2023-05-07T15:51:13;9.00;;;8.10;;
12110;SDS011;6119;52.372;8.990;2023-05-07T15:54:00;9.83;;;8.90;;
12110;SDS011;6119;52.372;8.990;2023-05-07T15:56:47;9.57;;;8.67;;
12110;SDS011;6119;52.372;8.990;2023-05-07T15:59:34;8.57;;;7.77;;
12110;SDS011;6119;52.372;8.990;2023-05-07T16:02:21;9.70;;;7.83;;
12110;SDS011;6119;52.372;8.990;2023-05-07T16:05:08;9.50;;;7.87;;
12110;SDS011;6119;52.372;8.990;2023-05-07T16:07:56;9.00;;;7.97;;
12110;SDS011;6119;52.372;8.990;2023-05-07T16:10:45;10.07;;;7.93;;
12110;SDS011;6119;52.372;8.990;2023-05-07T16:13:31;8.53;;;7.73;;
12110;SDS011;6119;52.372;8.990;2023-05-07T16:16:20;8.70;;;7.80;;
12110;SDS011;6119;52.372;8.990;2023-05-07T16:19:07;9.10;;;8.13;;
12110;SDS011;6119;52.372;8.990;2023-05-07T16:21:53;10.67;;;8.37;;
12110;SDS011;6119;52.372;8.990;2023-05-07T16:24:40;9.80;;;8.00;;
12110;SDS011;6119;52.372;8.990;2023-05-07T16:27:28;9.60;;;8.60;;
12110;SDS011;6119;52.372;8.990;2023-05-07T16:30:15;9.17;;;7.97;;
12110;SDS011;6119;52.372;8.990;2023-05-07T16:33:02;9.97;;;7.93;;
12110;SDS011;6119;52.372;8.990;2023-05-07T16:35:52;10.10;;;7.87;;
12110;SDS011;6119;52.372;8.990;2023-05-07T16:38:39;9.13;;;8.17;;
12110;SDS011;6119;52.372;8.990;2023-05-07T16:41:25;9.93;;;8.57;;
12110;SDS011;6119;52.372;8.990;2023-05-07T16:44:13;9.73;;;8.50;;
12110;SDS011;6119;52.372;8.990;2023-05-07T16:47:00;11.97;;;8.30;;
12110;SDS011;6119;52.372;8.990;2023-05-07T16:49:46;10.70;;;8.90;;
12110;SDS011;6119;52.372;8.990;2023-05-07T16:52:34;10.10;;;8.67;;
12110;SDS011;6119;52.372;8.990;2023-05-07T16:55:21;9.30;;;8.33;;
12110;SDS011;6119;52.372;8.990;2023-05-07T16:58:08;13.83;;;8.40;;